Terminal Aerodrome Forecast
Issued by NWS Norman, OK

Home | Current Version | Previous Version | Text Only | Print | Product List | Glossary On
Versions: 1 2 3 4 5 6 7 8 9 10 11 12 13 14
000
FTUS44 KOUN 241727
TAFSPS
TAF
KSPS 241727Z 2418/2518 29010KT P6SM BKN012
      TEMPO 2419/2420 SCT015
     FM242000 28015G22KT P6SM SKC
     FM250100 VRB06KT P6SM SKC
      TEMPO 2510/2514 2SM BR
     FM251500 16008KT P6SM FEW250=

USA.gov is the U.S. government's official web portal to all federal, state and local government web resources and services.